sensor_id;sensor_type;location;lat;lon;timestamp;temperature;humidity
22167;DHT22;11249;52.468;13.776;2023-04-19T00:01:29;6.70;99.90
22167;DHT22;11249;52.468;13.776;2023-04-19T00:03:56;6.70;99.90
22167;DHT22;11249;52.468;13.776;2023-04-19T00:06:23;6.70;99.90
22167;DHT22;11249;52.468;13.776;2023-04-19T00:08:51;6.70;99.90
22167;DHT22;11249;52.468;13.776;2023-04-19T00:11:18;6.70;99.90
22167;DHT22;11249;52.468;13.776;2023-04-19T00:13:44;6.70;99.90
22167;DHT22;11249;52.468;13.776;2023-04-19T00:16:11;6.80;99.90
22167;DHT22;11249;52.468;13.776;2023-04-19T00:18:38;6.80;99.90
22167;DHT22;11249;52.468;13.776;2023-04-19T00:21:05;6.80;99.90
22167;DHT22;11249;52.468;13.776;2023-04-19T00:23:32;6.80;99.90
22167;DHT22;11249;52.468;13.776;2023-04-19T00:26:01;6.80;99.90
22167;DHT22;11249;52.468;13.776;2023-04-19T00:28:29;6.80;99.90
22167;DHT22;11249;52.468;13.776;2023-04-19T00:30:56;6.80;99.90
22167;DHT22;11249;52.468;13.776;2023-04-19T00:33:23;6.70;99.90
22167;DHT22;11249;52.468;13.776;2023-04-19T00:35:50;6.70;99.90
22167;DHT22;11249;52.468;13.776;2023-04-19T00:38:16;6.70;99.90
22167;DHT22;11249;52.468;13.776;2023-04-19T00:40:43;6.70;99.90
22167;DHT22;11249;52.468;13.776;2023-04-19T00:43:10;6.60;99.90
22167;DHT22;11249;52.468;13.776;2023-04-19T00:45:37;6.60;99.90
22167;DHT22;11249;52.468;13.776;2023-04-19T00:48:04;6.60;99.90
22167;DHT22;11249;52.468;13.776;2023-04-19T00:50:31;6.60;99.90
22167;DHT22;11249;52.468;13.776;2023-04-19T00:52:58;6.60;99.90
22167;DHT22;11249;52.468;13.776;2023-04-19T00:55:25;6.50;99.90
22167;DHT22;11249;52.468;13.776;2023-04-19T00:57:52;6.50;99.90
22167;DHT22;11249;52.468;13.776;2023-04-19T01:00:19;6.50;99.90
22167;DHT22;11249;52.468;13.776;2023-04-19T01:02:46;6.50;99.90
22167;DHT22;11249;52.468;13.776;2023-04-19T01:05:13;6.40;99.90
22167;DHT22;11249;52.468;13.776;2023-04-19T01:07:42;6.40;99.90
22167;DHT22;11249;52.468;13.776;2023-04-19T01:10:09;6.40;99.90
22167;DHT22;11249;52.468;13.776;2023-04-19T01:12:35;6.30;99.90
22167;DHT22;11249;52.468;13.776;2023-04-19T01:15:03;6.20;99.90
22167;DHT22;11249;52.468;13.776;2023-04-19T01:17:31;6.20;99.90
22167;DHT22;11249;52.468;13.776;2023-04-19T01:20:03;6.10;99.90
22167;DHT22;11249;52.468;13.776;2023-04-19T01:22:34;6.00;99.90
22167;DHT22;11249;52.468;13.776;2023-04-19T01:25:03;5.90;99.90
22167;DHT22;11249;52.468;13.776;2023-04-19T01:27:30;5.90;99.90
22167;DHT22;11249;52.468;13.776;2023-04-19T01:29:57;5.80;99.90
22167;DHT22;11249;52.468;13.776;2023-04-19T01:32:24;5.70;99.90
22167;DHT22;11249;52.468;13.776;2023-04-19T01:34:52;5.70;99.90
22167;DHT22;11249;52.468;13.776;2023-04-19T01:37:19;5.70;99.90
22167;DHT22;11249;52.468;13.776;2023-04-19T01:39:45;5.70;99.90
22167;DHT22;11249;52.468;13.776;2023-04-19T01:42:12;5.60;99.90
22167;DHT22;11249;52.468;13.776;2023-04-19T01:44:39;5.60;99.90
22167;DHT22;11249;52.468;13.776;2023-04-19T01:47:05;5.50;99.90
22167;DHT22;11249;52.468;13.776;2023-04-19T01:49:32;5.50;99.90
22167;DHT22;11249;52.468;13.776;2023-04-19T01:51:59;5.50;99.90
22167;DHT22;11249;52.468;13.776;2023-04-19T01:54:26;5.50;99.90
22167;DHT22;11249;52.468;13.776;2023-04-19T01:56:53;5.40;99.90
22167;DHT22;11249;52.468;13.776;2023-04-19T01:59:19;5.40;99.90
22167;DHT22;11249;52.468;13.776;2023-04-19T02:01:46;5.40;99.90
22167;DHT22;11249;52.468;13.776;2023-04-19T02:04:13;5.40;99.90
22167;DHT22;11249;52.468;13.776;2023-04-19T02:06:40;5.30;99.90
22167;DHT22;11249;52.468;13.776;2023-04-19T02:09:06;5.30;99.90
22167;DHT22;11249;52.468;13.776;2023-04-19T02:11:33;5.20;99.90
22167;DHT22;11249;52.468;13.776;2023-04-19T02:14:00;5.20;99.90
22167;DHT22;11249;52.468;13.776;2023-04-19T02:16:27;5.20;99.90
22167;DHT22;11249;52.468;13.776;2023-04-19T02:18:54;5.20;99.90
22167;DHT22;11249;52.468;13.776;2023-04-19T02:21:21;5.10;99.90
22167;DHT22;11249;52.468;13.776;2023-04-19T02:23:47;5.10;99.90
22167;DHT22;11249;52.468;13.776;2023-04-19T02:26:14;5.10;99.90
22167;DHT22;11249;52.468;13.776;2023-04-19T02:28:41;5.00;99.90
22167;DHT22;11249;52.468;13.776;2023-04-19T02:31:07;5.00;99.90
22167;DHT22;11249;52.468;13.776;2023-04-19T02:33:34;4.90;99.90
22167;DHT22;11249;52.468;13.776;2023-04-19T02:36:01;4.90;99.90
22167;DHT22;11249;52.468;13.776;2023-04-19T02:38:28;4.80;99.90
22167;DHT22;11249;52.468;13.776;2023-04-19T02:40:55;4.80;99.90
22167;DHT22;11249;52.468;13.776;2023-04-19T02:43:22;4.70;99.90
22167;DHT22;11249;52.468;13.776;2023-04-19T02:45:54;4.70;99.90
22167;DHT22;11249;52.468;13.776;2023-04-19T02:48:21;4.60;99.90
22167;DHT22;11249;52.468;13.776;2023-04-19T02:50:47;4.60;99.90
22167;DHT22;11249;52.468;13.776;2023-04-19T02:53:14;4.50;99.90
22167;DHT22;11249;52.468;13.776;2023-04-19T02:55:41;4.50;99.90
22167;DHT22;11249;52.468;13.776;2023-04-19T02:58:08;4.40;99.90
22167;DHT22;11249;52.468;13.776;2023-04-19T03:00:34;4.40;99.90
22167;DHT22;11249;52.468;13.776;2023-04-19T03:03:01;4.30;99.90
22167;DHT22;11249;52.468;13.776;2023-04-19T03:05:30;4.30;99.90
22167;DHT22;11249;52.468;13.776;2023-04-19T03:07:57;4.30;99.90
22167;DHT22;11249;52.468;13.776;2023-04-19T03:10:24;4.30;99.90
22167;DHT22;11249;52.468;13.776;2023-04-19T03:12:51;4.20;99.90
22167;DHT22;11249;52.468;13.776;2023-04-19T03:15:18;4.20;99.90
22167;DHT22;11249;52.468;13.776;2023-04-19T03:17:45;4.10;99.90
22167;DHT22;11249;52.468;13.776;2023-04-19T03:20:12;4.10;99.90
22167;DHT22;11249;52.468;13.776;2023-04-19T03:22:39;4.10;99.90
22167;DHT22;11249;52.468;13.776;2023-04-19T03:25:06;4.00;99.90
22167;DHT22;11249;52.468;13.776;2023-04-19T03:27:34;4.00;99.90
22167;DHT22;11249;52.468;13.776;2023-04-19T03:30:02;3.90;99.90
22167;DHT22;11249;52.468;13.776;2023-04-19T03:32:30;3.90;99.90
22167;DHT22;11249;52.468;13.776;2023-04-19T03:34:57;3.80;99.90
22167;DHT22;11249;52.468;13.776;2023-04-19T03:37:24;3.80;99.90
22167;DHT22;11249;52.468;13.776;2023-04-19T03:39:50;3.70;99.90
22167;DHT22;11249;52.468;13.776;2023-04-19T03:42:17;3.70;99.90
22167;DHT22;11249;52.468;13.776;2023-04-19T03:44:44;3.70;99.90
22167;DHT22;11249;52.468;13.776;2023-04-19T03:47:10;3.60;99.90
22167;DHT22;11249;52.468;13.776;2023-04-19T03:49:37;3.50;99.90
22167;DHT22;11249;52.468;13.776;2023-04-19T03:52:04;3.50;99.90
22167;DHT22;11249;52.468;13.776;2023-04-19T03:54:31;3.50;99.90
22167;DHT22;11249;52.468;13.776;2023-04-19T03:56:57;3.50;99.90
22167;DHT22;11249;52.468;13.776;2023-04-19T03:59:25;3.50;99.90
22167;DHT22;11249;52.468;13.776;2023-04-19T04:01:51;3.50;99.90
22167;DHT22;11249;52.468;13.776;2023-04-19T04:04:18;3.40;99.90
22167;DHT22;11249;52.468;13.776;2023-04-19T04:06:45;3.40;99.90
22167;DHT22;11249;52.468;13.776;2023-04-19T04:09:12;3.30;99.90
22167;DHT22;11249;52.468;13.776;2023-04-19T04:11:38;3.30;99.90
22167;DHT22;11249;52.468;13.776;2023-04-19T04:14:06;3.20;99.90
22167;DHT22;11249;52.468;13.776;2023-04-19T04:16:32;3.20;99.90
22167;DHT22;11249;52.468;13.776;2023-04-19T04:18:59;3.20;99.90
22167;DHT22;11249;52.468;13.776;2023-04-19T04:21:26;3.10;99.90
22167;DHT22;11249;52.468;13.776;2023-04-19T04:23:53;3.10;99.90
22167;DHT22;11249;52.468;13.776;2023-04-19T04:26:20;3.10;99.90
22167;DHT22;11249;52.468;13.776;2023-04-19T04:28:47;3.10;99.90
22167;DHT22;11249;52.468;13.776;2023-04-19T04:31:14;3.00;99.90
22167;DHT22;11249;52.468;13.776;2023-04-19T04:33:43;3.00;99.90
22167;DHT22;11249;52.468;13.776;2023-04-19T04:36:11;3.00;99.90
22167;DHT22;11249;52.468;13.776;2023-04-19T04:38:38;3.00;99.90
22167;DHT22;11249;52.468;13.776;2023-04-19T04:41:05;3.00;99.90
22167;DHT22;11249;52.468;13.776;2023-04-19T04:43:33;3.00;99.90
22167;DHT22;11249;52.468;13.776;2023-04-19T04:46:00;3.00;99.90
22167;DHT22;11249;52.468;13.776;2023-04-19T04:48:27;3.00;99.90
22167;DHT22;11249;52.468;13.776;2023-04-19T04:50:54;3.00;99.90
22167;DHT22;11249;52.468;13.776;2023-04-19T04:53:20;3.00;99.90
22167;DHT22;11249;52.468;13.776;2023-04-19T04:55:47;3.00;99.90
22167;DHT22;11249;52.468;13.776;2023-04-19T04:58:14;3.00;99.90
22167;DHT22;11249;52.468;13.776;2023-04-19T05:00:40;3.10;99.90
22167;DHT22;11249;52.468;13.776;2023-04-19T05:03:07;3.10;99.90
22167;DHT22;11249;52.468;13.776;2023-04-19T05:05:34;3.20;99.90
22167;DHT22;11249;52.468;13.776;2023-04-19T05:08:01;3.20;99.90
22167;DHT22;11249;52.468;13.776;2023-04-19T05:10:27;3.30;99.90
22167;DHT22;11249;52.468;13.776;2023-04-19T05:12:54;3.30;99.90
22167;DHT22;11249;52.468;13.776;2023-04-19T05:15:21;3.40;99.90
22167;DHT22;11249;52.468;13.776;2023-04-19T05:17:48;3.40;99.90
22167;DHT22;11249;52.468;13.776;2023-04-19T05:20:14;3.50;99.90
22167;DHT22;11249;52.468;13.776;2023-04-19T05:22:41;3.60;99.90
22167;DHT22;11249;52.468;13.776;2023-04-19T05:25:09;3.70;99.90
22167;DHT22;11249;52.468;13.776;2023-04-19T05:27:36;3.80;99.90
22167;DHT22;11249;52.468;13.776;2023-04-19T05:30:03;3.80;99.90
22167;DHT22;11249;52.468;13.776;2023-04-19T05:32:30;3.90;99.90
22167;DHT22;11249;52.468;13.776;2023-04-19T05:34:57;4.00;99.90
22167;DHT22;11249;52.468;13.776;2023-04-19T05:37:24;4.30;99.90
22167;DHT22;11249;52.468;13.776;2023-04-19T05:39:50;4.30;99.90
22167;DHT22;11249;52.468;13.776;2023-04-19T05:42:17;4.40;99.90
22167;DHT22;11249;52.468;13.776;2023-04-19T05:44:44;4.50;99.90
22167;DHT22;11249;52.468;13.776;2023-04-19T05:47:11;4.60;99.90
22167;DHT22;11249;52.468;13.776;2023-04-19T05:49:38;4.80;99.90
22167;DHT22;11249;52.468;13.776;2023-04-19T05:52:07;4.90;99.90
22167;DHT22;11249;52.468;13.776;2023-04-19T05:54:34;5.00;99.90
22167;DHT22;11249;52.468;13.776;2023-04-19T05:57:02;5.10;99.90
22167;DHT22;11249;52.468;13.776;2023-04-19T05:59:28;5.20;99.90
22167;DHT22;11249;52.468;13.776;2023-04-19T06:01:55;5.30;99.90
22167;DHT22;11249;52.468;13.776;2023-04-19T06:04:23;5.30;99.90
22167;DHT22;11249;52.468;13.776;2023-04-19T06:06:50;5.30;99.90
22167;DHT22;11249;52.468;13.776;2023-04-19T06:09:17;5.40;99.90
22167;DHT22;11249;52.468;13.776;2023-04-19T06:11:44;5.50;99.90
22167;DHT22;11249;52.468;13.776;2023-04-19T06:14:17;5.50;99.90
22167;DHT22;11249;52.468;13.776;2023-04-19T06:16:44;5.60;99.90
22167;DHT22;11249;52.468;13.776;2023-04-19T06:19:11;5.70;99.90
22167;DHT22;11249;52.468;13.776;2023-04-19T06:21:38;5.70;99.90
22167;DHT22;11249;52.468;13.776;2023-04-19T06:24:06;5.80;99.90
22167;DHT22;11249;52.468;13.776;2023-04-19T06:26:33;5.80;99.90
22167;DHT22;11249;52.468;13.776;2023-04-19T06:28:59;5.90;99.90
22167;DHT22;11249;52.468;13.776;2023-04-19T06:31:26;5.90;99.90
22167;DHT22;11249;52.468;13.776;2023-04-19T06:33:53;6.00;99.90
22167;DHT22;11249;52.468;13.776;2023-04-19T06:36:20;6.10;99.90
22167;DHT22;11249;52.468;13.776;2023-04-19T06:38:47;6.10;99.90
22167;DHT22;11249;52.468;13.776;2023-04-19T06:41:15;6.20;99.90
22167;DHT22;11249;52.468;13.776;2023-04-19T06:43:42;6.30;99.90
22167;DHT22;11249;52.468;13.776;2023-04-19T06:46:10;6.30;99.90
22167;DHT22;11249;52.468;13.776;2023-04-19T06:48:39;6.40;99.90
22167;DHT22;11249;52.468;13.776;2023-04-19T06:51:06;6.50;99.90
22167;DHT22;11249;52.468;13.776;2023-04-19T06:53:33;6.60;99.90
22167;DHT22;11249;52.468;13.776;2023-04-19T06:56:02;6.70;99.90
22167;DHT22;11249;52.468;13.776;2023-04-19T06:58:30;6.70;99.90
22167;DHT22;11249;52.468;13.776;2023-04-19T07:01:03;6.80;99.90
22167;DHT22;11249;52.468;13.776;2023-04-19T07:03:30;6.90;99.90
22167;DHT22;11249;52.468;13.776;2023-04-19T07:05:57;7.00;99.90
22167;DHT22;11249;52.468;13.776;2023-04-19T07:08:25;7.10;99.90
22167;DHT22;11249;52.468;13.776;2023-04-19T07:11:04;7.20;99.90
22167;DHT22;11249;52.468;13.776;2023-04-19T07:13:31;7.20;99.90
22167;DHT22;11249;52.468;13.776;2023-04-19T07:15:58;7.30;99.90
22167;DHT22;11249;52.468;13.776;2023-04-19T07:18:25;7.40;99.90
22167;DHT22;11249;52.468;13.776;2023-04-19T07:20:51;7.50;99.90
22167;DHT22;11249;52.468;13.776;2023-04-19T07:23:18;7.60;99.90
22167;DHT22;11249;52.468;13.776;2023-04-19T07:25:45;7.70;99.90
22167;DHT22;11249;52.468;13.776;2023-04-19T07:28:11;7.80;99.90
22167;DHT22;11249;52.468;13.776;2023-04-19T07:30:38;7.90;99.90
22167;DHT22;11249;52.468;13.776;2023-04-19T07:33:05;8.00;99.90
22167;DHT22;11249;52.468;13.776;2023-04-19T07:35:34;8.00;99.90
22167;DHT22;11249;52.468;13.776;2023-04-19T07:38:01;8.10;99.90
22167;DHT22;11249;52.468;13.776;2023-04-19T07:40:28;8.20;99.90
22167;DHT22;11249;52.468;13.776;2023-04-19T07:42:55;8.30;99.90
22167;DHT22;11249;52.468;13.776;2023-04-19T07:45:22;8.40;99.90
22167;DHT22;11249;52.468;13.776;2023-04-19T07:47:49;8.40;99.90
22167;DHT22;11249;52.468;13.776;2023-04-19T07:50:16;8.40;99.90
22167;DHT22;11249;52.468;13.776;2023-04-19T07:52:43;8.40;99.90
22167;DHT22;11249;52.468;13.776;2023-04-19T07:55:09;8.40;99.90
22167;DHT22;11249;52.468;13.776;2023-04-19T07:57:36;8.40;99.90
22167;DHT22;11249;52.468;13.776;2023-04-19T08:00:03;8.40;99.90
22167;DHT22;11249;52.468;13.776;2023-04-19T08:02:30;8.30;99.90
22167;DHT22;11249;52.468;13.776;2023-04-19T08:04:57;8.40;99.90
22167;DHT22;11249;52.468;13.776;2023-04-19T08:07:24;8.50;99.90
22167;DHT22;11249;52.468;13.776;2023-04-19T08:09:51;8.70;99.90
22167;DHT22;11249;52.468;13.776;2023-04-19T08:12:18;8.80;99.90
22167;DHT22;11249;52.468;13.776;2023-04-19T08:15:06;9.00;99.90
22167;DHT22;11249;52.468;13.776;2023-04-19T08:17:53;9.10;99.90
22167;DHT22;11249;52.468;13.776;2023-04-19T08:20:20;9.10;99.90
22167;DHT22;11249;52.468;13.776;2023-04-19T08:22:47;9.20;99.90
22167;DHT22;11249;52.468;13.776;2023-04-19T08:25:14;9.20;99.90
22167;DHT22;11249;52.468;13.776;2023-04-19T08:27:40;9.20;99.90
22167;DHT22;11249;52.468;13.776;2023-04-19T08:30:08;9.20;99.90
22167;DHT22;11249;52.468;13.776;2023-04-19T08:32:36;9.20;99.90
22167;DHT22;11249;52.468;13.776;2023-04-19T08:35:03;9.40;99.90
22167;DHT22;11249;52.468;13.776;2023-04-19T08:37:31;9.50;99.90
22167;DHT22;11249;52.468;13.776;2023-04-19T08:39:57;9.70;99.90
22167;DHT22;11249;52.468;13.776;2023-04-19T08:42:24;9.80;99.90
22167;DHT22;11249;52.468;13.776;2023-04-19T08:45:03;9.80;99.90
22167;DHT22;11249;52.468;13.776;2023-04-19T08:47:35;10.00;99.90
22167;DHT22;11249;52.468;13.776;2023-04-19T08:50:14;10.10;99.90
22167;DHT22;11249;52.468;13.776;2023-04-19T08:53:01;10.10;99.90
22167;DHT22;11249;52.468;13.776;2023-04-19T08:55:30;10.20;99.90
22167;DHT22;11249;52.468;13.776;2023-04-19T08:57:57;10.20;99.90
22167;DHT22;11249;52.468;13.776;2023-04-19T09:00:24;10.20;99.90
22167;DHT22;11249;52.468;13.776;2023-04-19T09:02:51;10.40;99.90
22167;DHT22;11249;52.468;13.776;2023-04-19T09:05:20;10.50;99.90
22167;DHT22;11249;52.468;13.776;2023-04-19T09:07:48;10.60;99.90
22167;DHT22;11249;52.468;13.776;2023-04-19T09:10:20;10.60;99.90
22167;DHT22;11249;52.468;13.776;2023-04-19T09:13:07;10.70;99.90
22167;DHT22;11249;52.468;13.776;2023-04-19T09:15:39;10.80;99.90
22167;DHT22;11249;52.468;13.776;2023-04-19T09:18:08;11.00;99.90
22167;DHT22;11249;52.468;13.776;2023-04-19T09:20:42;11.20;99.90
22167;DHT22;11249;52.468;13.776;2023-04-19T09:23:12;11.40;99.90
22167;DHT22;11249;52.468;13.776;2023-04-19T09:25:40;11.60;99.90
22167;DHT22;11249;52.468;13.776;2023-04-19T09:28:18;11.80;99.90
22167;DHT22;11249;52.468;13.776;2023-04-19T09:30:45;11.80;99.90
22167;DHT22;11249;52.468;13.776;2023-04-19T09:33:36;11.80;99.90
22167;DHT22;11249;52.468;13.776;2023-04-19T09:36:06;11.80;99.90
22167;DHT22;11249;52.468;13.776;2023-04-19T09:38:48;11.60;99.90
22167;DHT22;11249;52.468;13.776;2023-04-19T09:41:16;11.50;99.90
22167;DHT22;11249;52.468;13.776;2023-04-19T09:43:45;11.30;99.90
22167;DHT22;11249;52.468;13.776;2023-04-19T09:46:36;11.20;99.90
22167;DHT22;11249;52.468;13.776;2023-04-19T09:49:21;11.20;99.90
22167;DHT22;11249;52.468;13.776;2023-04-19T09:52:13;11.10;99.90
22167;DHT22;11249;52.468;13.776;2023-04-19T09:54:41;11.30;99.90
22167;DHT22;11249;52.468;13.776;2023-04-19T09:57:07;11.50;99.90
22167;DHT22;11249;52.468;13.776;2023-04-19T09:59:34;11.70;99.90
22167;DHT22;11249;52.468;13.776;2023-04-19T10:02:02;11.80;99.90
22167;DHT22;11249;52.468;13.776;2023-04-19T10:04:30;11.70;99.90
22167;DHT22;11249;52.468;13.776;2023-04-19T10:07:17;11.50;99.90
22167;DHT22;11249;52.468;13.776;2023-04-19T10:09:58;11.40;99.90
22167;DHT22;11249;52.468;13.776;2023-04-19T10:12:49;11.60;99.90
22167;DHT22;11249;52.468;13.776;2023-04-19T10:15:37;11.80;99.90
22167;DHT22;11249;52.468;13.776;2023-04-19T10:18:18;11.90;99.90
22167;DHT22;11249;52.468;13.776;2023-04-19T10:20:57;12.00;99.90
22167;DHT22;11249;52.468;13.776;2023-04-19T10:23:25;11.90;99.90
22167;DHT22;11249;52.468;13.776;2023-04-19T10:25:56;11.90;99.90
22167;DHT22;11249;52.468;13.776;2023-04-19T10:28:24;12.00;99.90
22167;DHT22;11249;52.468;13.776;2023-04-19T10:31:02;12.10;99.90
22167;DHT22;11249;52.468;13.776;2023-04-19T10:33:35;12.10;99.90
22167;DHT22;11249;52.468;13.776;2023-04-19T10:36:03;12.10;99.90
22167;DHT22;11249;52.468;13.776;2023-04-19T10:41:02;12.30;99.90
22167;DHT22;11249;52.468;13.776;2023-04-19T10:43:33;12.30;99.90
22167;DHT22;11249;52.468;13.776;2023-04-19T10:48:52;12.40;99.90
22167;DHT22;11249;52.468;13.776;2023-04-19T10:51:22;12.50;99.90
22167;DHT22;11249;52.468;13.776;2023-04-19T10:53:49;12.70;99.90
22167;DHT22;11249;52.468;13.776;2023-04-19T11:01:43;12.80;99.90
22167;DHT22;11249;52.468;13.776;2023-04-19T11:04:16;12.80;99.90
22167;DHT22;11249;52.468;13.776;2023-04-19T11:09:23;13.10;99.90
22167;DHT22;11249;52.468;13.776;2023-04-19T11:11:56;13.10;99.90
22167;DHT22;11249;52.468;13.776;2023-04-19T11:14:24;13.20;99.90
22167;DHT22;11249;52.468;13.776;2023-04-19T11:16:50;13.40;99.90
22167;DHT22;11249;52.468;13.776;2023-04-19T11:19:18;13.50;99.90
22167;DHT22;11249;52.468;13.776;2023-04-19T11:21:46;13.40;99.90
22167;DHT22;11249;52.468;13.776;2023-04-19T11:24:13;13.30;99.90
22167;DHT22;11249;52.468;13.776;2023-04-19T11:26:44;13.20;99.90
22167;DHT22;11249;52.468;13.776;2023-04-19T11:29:12;13.10;99.90
22167;DHT22;11249;52.468;13.776;2023-04-19T11:31:39;12.90;99.90
22167;DHT22;11249;52.468;13.776;2023-04-19T11:34:09;12.80;99.90
22167;DHT22;11249;52.468;13.776;2023-04-19T11:36:49;12.80;99.90
22167;DHT22;11249;52.468;13.776;2023-04-19T11:39:17;12.90;99.90
22167;DHT22;11249;52.468;13.776;2023-04-19T11:41:44;12.90;99.90
22167;DHT22;11249;52.468;13.776;2023-04-19T11:44:16;12.90;99.90
22167;DHT22;11249;52.468;13.776;2023-04-19T11:47:02;12.80;99.90
22167;DHT22;11249;52.468;13.776;2023-04-19T11:49:32;12.60;99.90
22167;DHT22;11249;52.468;13.776;2023-04-19T11:52:00;12.70;99.90
22167;DHT22;11249;52.468;13.776;2023-04-19T11:54:31;12.70;99.90
22167;DHT22;11249;52.468;13.776;2023-04-19T11:57:08;12.60;99.90
22167;DHT22;11249;52.468;13.776;2023-04-19T11:59:35;12.50;99.90
22167;DHT22;11249;52.468;13.776;2023-04-19T12:02:09;12.40;99.90
22167;DHT22;11249;52.468;13.776;2023-04-19T12:04:37;12.60;99.90
22167;DHT22;11249;52.468;13.776;2023-04-19T12:07:05;12.70;99.90
22167;DHT22;11249;52.468;13.776;2023-04-19T12:09:33;12.90;99.90
22167;DHT22;11249;52.468;13.776;2023-04-19T12:12:01;13.00;99.90
22167;DHT22;11249;52.468;13.776;2023-04-19T12:14:29;12.80;99.90
22167;DHT22;11249;52.468;13.776;2023-04-19T12:17:10;12.80;99.90
22167;DHT22;11249;52.468;13.776;2023-04-19T12:19:42;12.80;99.90
22167;DHT22;11249;52.468;13.776;2023-04-19T12:22:13;12.60;99.90
22167;DHT22;11249;52.468;13.776;2023-04-19T12:24:40;12.50;99.90
22167;DHT22;11249;52.468;13.776;2023-04-19T12:27:08;12.50;99.90
22167;DHT22;11249;52.468;13.776;2023-04-19T12:29:37;12.60;99.90
22167;DHT22;11249;52.468;13.776;2023-04-19T12:32:04;12.70;99.90
22167;DHT22;11249;52.468;13.776;2023-04-19T12:34:31;12.90;99.90
22167;DHT22;11249;52.468;13.776;2023-04-19T12:36:58;12.80;99.90
22167;DHT22;11249;52.468;13.776;2023-04-19T12:39:24;12.50;99.90
22167;DHT22;11249;52.468;13.776;2023-04-19T12:41:51;12.50;99.90
22167;DHT22;11249;52.468;13.776;2023-04-19T12:44:18;12.60;99.90
22167;DHT22;11249;52.468;13.776;2023-04-19T12:46:45;12.60;99.90
22167;DHT22;11249;52.468;13.776;2023-04-19T12:49:11;12.50;99.90
22167;DHT22;11249;52.468;13.776;2023-04-19T12:51:38;12.50;99.90
22167;DHT22;11249;52.468;13.776;2023-04-19T12:54:05;12.60;99.90
22167;DHT22;11249;52.468;13.776;2023-04-19T12:56:33;12.70;99.90
22167;DHT22;11249;52.468;13.776;2023-04-19T12:59:00;12.60;99.90
22167;DHT22;11249;52.468;13.776;2023-04-19T13:01:27;12.50;99.90
22167;DHT22;11249;52.468;13.776;2023-04-19T13:03:54;12.50;99.90
22167;DHT22;11249;52.468;13.776;2023-04-19T13:06:24;12.50;99.90
22167;DHT22;11249;52.468;13.776;2023-04-19T13:08:51;12.40;99.90
22167;DHT22;11249;52.468;13.776;2023-04-19T13:11:20;12.40;99.90
22167;DHT22;11249;52.468;13.776;2023-04-19T13:13:49;12.20;99.90
22167;DHT22;11249;52.468;13.776;2023-04-19T13:16:17;12.20;99.90
22167;DHT22;11249;52.468;13.776;2023-04-19T13:18:44;12.10;99.90
22167;DHT22;11249;52.468;13.776;2023-04-19T13:21:11;12.00;99.90
22167;DHT22;11249;52.468;13.776;2023-04-19T13:23:38;12.10;99.90
22167;DHT22;11249;52.468;13.776;2023-04-19T13:26:05;12.00;99.90
22167;DHT22;11249;52.468;13.776;2023-04-19T13:28:32;12.00;99.90
22167;DHT22;11249;52.468;13.776;2023-04-19T13:31:02;12.00;99.90
22167;DHT22;11249;52.468;13.776;2023-04-19T13:33:30;11.90;99.90
22167;DHT22;11249;52.468;13.776;2023-04-19T13:35:56;11.90;99.90
22167;DHT22;11249;52.468;13.776;2023-04-19T13:38:23;11.70;99.90
22167;DHT22;11249;52.468;13.776;2023-04-19T13:40:50;11.80;99.90
22167;DHT22;11249;52.468;13.776;2023-04-19T13:43:17;11.60;99.90
22167;DHT22;11249;52.468;13.776;2023-04-19T13:45:44;11.40;99.90
22167;DHT22;11249;52.468;13.776;2023-04-19T13:48:11;11.10;99.90
22167;DHT22;11249;52.468;13.776;2023-04-19T13:50:38;10.70;99.90
22167;DHT22;11249;52.468;13.776;2023-04-19T13:53:05;10.40;99.90
22167;DHT22;11249;52.468;13.776;2023-04-19T13:55:32;10.20;99.90
22167;DHT22;11249;52.468;13.776;2023-04-19T13:57:59;10.20;99.90
22167;DHT22;11249;52.468;13.776;2023-04-19T14:00:26;10.20;99.90
22167;DHT22;11249;52.468;13.776;2023-04-19T14:02:54;10.20;99.90
22167;DHT22;11249;52.468;13.776;2023-04-19T14:05:22;10.30;99.90
22167;DHT22;11249;52.468;13.776;2023-04-19T14:07:49;10.20;99.90
22167;DHT22;11249;52.468;13.776;2023-04-19T14:10:16;10.20;99.90
22167;DHT22;11249;52.468;13.776;2023-04-19T14:12:42;10.20;99.90
22167;DHT22;11249;52.468;13.776;2023-04-19T14:15:10;10.20;99.90
22167;DHT22;11249;52.468;13.776;2023-04-19T14:17:37;10.20;99.90
22167;DHT22;11249;52.468;13.776;2023-04-19T14:20:05;10.30;99.90
22167;DHT22;11249;52.468;13.776;2023-04-19T14:22:33;10.20;99.90
22167;DHT22;11249;52.468;13.776;2023-04-19T14:25:01;10.20;99.90
22167;DHT22;11249;52.468;13.776;2023-04-19T14:27:29;10.30;99.90
22167;DHT22;11249;52.468;13.776;2023-04-19T14:29:56;10.30;99.90
22167;DHT22;11249;52.468;13.776;2023-04-19T14:32:23;10.30;99.90
22167;DHT22;11249;52.468;13.776;2023-04-19T14:34:53;10.30;99.90
22167;DHT22;11249;52.468;13.776;2023-04-19T14:37:21;10.20;99.90
22167;DHT22;11249;52.468;13.776;2023-04-19T14:39:48;10.20;99.90
22167;DHT22;11249;52.468;13.776;2023-04-19T14:42:15;10.20;99.90
22167;DHT22;11249;52.468;13.776;2023-04-19T14:44:41;10.10;99.90
22167;DHT22;11249;52.468;13.776;2023-04-19T14:47:08;10.00;99.90
22167;DHT22;11249;52.468;13.776;2023-04-19T14:49:35;9.80;99.90
22167;DHT22;11249;52.468;13.776;2023-04-19T14:52:02;9.70;99.90
22167;DHT22;11249;52.468;13.776;2023-04-19T14:54:29;9.70;99.90
22167;DHT22;11249;52.468;13.776;2023-04-19T14:56:56;9.60;99.90
22167;DHT22;11249;52.468;13.776;2023-04-19T14:59:23;9.50;99.90
22167;DHT22;11249;52.468;13.776;2023-04-19T15:01:49;9.40;99.90
22167;DHT22;11249;52.468;13.776;2023-04-19T15:04:16;9.30;99.90
22167;DHT22;11249;52.468;13.776;2023-04-19T15:06:43;9.20;99.90
22167;DHT22;11249;52.468;13.776;2023-04-19T15:09:10;9.10;99.90
22167;DHT22;11249;52.468;13.776;2023-04-19T15:11:37;8.90;99.90
22167;DHT22;11249;52.468;13.776;2023-04-19T15:14:03;8.80;99.90
22167;DHT22;11249;52.468;13.776;2023-04-19T15:16:30;8.60;99.90
22167;DHT22;11249;52.468;13.776;2023-04-19T15:18:57;8.50;99.90
22167;DHT22;11249;52.468;13.776;2023-04-19T15:21:24;8.20;99.90
22167;DHT22;11249;52.468;13.776;2023-04-19T15:23:50;8.00;99.90
22167;DHT22;11249;52.468;13.776;2023-04-19T15:26:17;7.80;99.90
22167;DHT22;11249;52.468;13.776;2023-04-19T15:28:44;7.60;99.90
22167;DHT22;11249;52.468;13.776;2023-04-19T15:31:11;7.40;99.90
22167;DHT22;11249;52.468;13.776;2023-04-19T15:33:38;7.40;99.90
22167;DHT22;11249;52.468;13.776;2023-04-19T15:36:05;7.30;99.90
22167;DHT22;11249;52.468;13.776;2023-04-19T15:38:32;7.10;99.90
22167;DHT22;11249;52.468;13.776;2023-04-19T15:40:59;7.10;99.90
22167;DHT22;11249;52.468;13.776;2023-04-19T15:43:29;7.00;99.90
22167;DHT22;11249;52.468;13.776;2023-04-19T15:45:55;6.90;99.90